sensor_id;sensor_type;location;lat;lon;timestamp;pressure;altitude;pressure_sealevel;temperature;humidity
69911;BME280;63555;49.920;17.868;2023-03-01T00:00:27;99932.78;;;-6.19;73.92
69911;BME280;63555;49.920;17.868;2023-03-01T00:05:27;99937.00;;;-6.23;74.15
69911;BME280;63555;49.920;17.868;2023-03-01T00:10:27;99938.66;;;-6.29;73.96
69911;BME280;63555;49.920;17.868;2023-03-01T00:15:28;99942.91;;;-6.30;74.25
69911;BME280;63555;49.920;17.868;2023-03-01T00:20:28;99946.41;;;-6.23;74.98
69911;BME280;63555;49.920;17.868;2023-03-01T00:25:28;99947.31;;;-6.20;74.72
69911;BME280;63555;49.920;17.868;2023-03-01T00:30:29;99947.25;;;-6.24;74.05
69911;BME280;63555;49.920;17.868;2023-03-01T00:35:29;99942.03;;;-6.33;74.15
69911;BME280;63555;49.920;17.868;2023-03-01T00:40:35;99933.38;;;-6.42;74.21
69911;BME280;63555;49.920;17.868;2023-03-01T00:45:35;99929.00;;;-6.50;74.05
69911;BME280;63555;49.920;17.868;2023-03-01T00:50:36;99919.56;;;-6.53;75.13
69911;BME280;63555;49.920;17.868;2023-03-01T00:55:36;99917.00;;;-6.54;75.26
69911;BME280;63555;49.920;17.868;2023-03-01T01:00:37;99923.84;;;-6.53;75.11
69911;BME280;63555;49.920;17.868;2023-03-01T01:05:37;99920.44;;;-6.52;75.29
69911;BME280;63555;49.920;17.868;2023-03-01T01:10:38;99925.59;;;-6.49;75.10
69911;BME280;63555;49.920;17.868;2023-03-01T01:15:39;99933.34;;;-6.45;75.53
69911;BME280;63555;49.920;17.868;2023-03-01T01:20:39;99929.16;;;-6.38;76.00
69911;BME280;63555;49.920;17.868;2023-03-01T01:25:39;99923.25;;;-6.29;75.33
69911;BME280;63555;49.920;17.868;2023-03-01T01:30:40;99925.78;;;-6.34;75.18
69911;BME280;63555;49.920;17.868;2023-03-01T01:35:40;99924.84;;;-6.40;75.61
69911;BME280;63555;49.920;17.868;2023-03-01T01:40:45;99920.47;;;-6.49;75.42
69911;BME280;63555;49.920;17.868;2023-03-01T01:45:46;99913.56;;;-6.55;75.14
69911;BME280;63555;49.920;17.868;2023-03-01T01:50:53;99919.50;;;-6.60;75.89
69911;BME280;63555;49.920;17.868;2023-03-01T01:55:58;99910.03;;;-6.64;75.57
69911;BME280;63555;49.920;17.868;2023-03-01T02:01:00;99903.16;;;-6.68;75.75
69911;BME280;63555;49.920;17.868;2023-03-01T02:06:06;99896.25;;;-6.74;75.90
69911;BME280;63555;49.920;17.868;2023-03-01T02:11:11;99899.63;;;-6.78;76.09
69911;BME280;63555;49.920;17.868;2023-03-01T02:16:15;99896.13;;;-6.83;75.62
69911;BME280;63555;49.920;17.868;2023-03-01T02:21:26;99888.47;;;-6.82;76.12
69911;BME280;63555;49.920;17.868;2023-03-01T02:26:51;99892.63;;;-6.91;75.42
69911;BME280;63555;49.920;17.868;2023-03-01T02:31:54;99885.69;;;-6.97;76.35
69911;BME280;63555;49.920;17.868;2023-03-01T02:37:01;99889.06;;;-7.01;76.07
69911;BME280;63555;49.920;17.868;2023-03-01T02:42:05;99879.69;;;-6.99;76.39
69911;BME280;63555;49.920;17.868;2023-03-01T02:47:06;99869.41;;;-6.99;75.95
69911;BME280;63555;49.920;17.868;2023-03-01T02:57:13;99862.56;;;-7.00;76.21
69911;BME280;63555;49.920;17.868;2023-03-01T03:02:22;99865.97;;;-7.01;75.96
69911;BME280;63555;49.920;17.868;2023-03-01T03:07:41;99856.56;;;-7.02;76.20
69911;BME280;63555;49.920;17.868;2023-03-01T03:12:42;99859.13;;;-7.02;76.58
69911;BME280;63555;49.920;17.868;2023-03-01T03:17:42;99852.22;;;-7.09;76.42
69911;BME280;63555;49.920;17.868;2023-03-01T03:22:43;99843.59;;;-7.16;75.95
69911;BME280;63555;49.920;17.868;2023-03-01T03:27:45;99842.63;;;-7.24;76.90
69911;BME280;63555;49.920;17.868;2023-03-01T03:32:47;99840.00;;;-7.28;76.69
69911;BME280;63555;49.920;17.868;2023-03-01T03:37:52;99839.09;;;-7.32;76.56
69911;BME280;63555;49.920;17.868;2023-03-01T03:43:06;99839.94;;;-7.34;76.91
69911;BME280;63555;49.920;17.868;2023-03-01T03:48:08;99841.59;;;-7.36;77.07
69911;BME280;63555;49.920;17.868;2023-03-01T03:53:11;99852.69;;;-7.38;77.33
69911;BME280;63555;49.920;17.868;2023-03-01T03:58:12;99846.72;;;-7.38;77.01
69911;BME280;63555;49.920;17.868;2023-03-01T04:03:14;99843.28;;;-7.39;76.75
69911;BME280;63555;49.920;17.868;2023-03-01T04:08:15;99842.41;;;-7.41;77.10
69911;BME280;63555;49.920;17.868;2023-03-01T04:13:18;99850.06;;;-7.42;77.09
69911;BME280;63555;49.920;17.868;2023-03-01T04:18:23;99851.81;;;-7.40;76.83
69911;BME280;63555;49.920;17.868;2023-03-01T04:23:25;99849.28;;;-7.38;77.48
69911;BME280;63555;49.920;17.868;2023-03-01T04:28:36;99839.91;;;-7.36;76.98
69911;BME280;63555;49.920;17.868;2023-03-01T04:33:37;99843.25;;;-7.42;77.04
69911;BME280;63555;49.920;17.868;2023-03-01T04:38:38;99832.09;;;-7.47;76.93
69911;BME280;63555;49.920;17.868;2023-03-01T04:43:39;99834.63;;;-7.47;77.36
69911;BME280;63555;49.920;17.868;2023-03-01T04:48:40;99833.75;;;-7.49;77.13
69911;BME280;63555;49.920;17.868;2023-03-01T04:53:42;99843.97;;;-7.50;77.18
69911;BME280;63555;49.920;17.868;2023-03-01T04:58:42;99850.75;;;-7.54;76.97
69911;BME280;63555;49.920;17.868;2023-03-01T05:03:44;99857.53;;;-7.57;77.60
69911;BME280;63555;49.920;17.868;2023-03-01T05:08:45;99854.97;;;-7.57;77.39
69911;BME280;63555;49.920;17.868;2023-03-01T05:13:45;99852.38;;;-7.60;77.22
69911;BME280;63555;49.920;17.868;2023-03-01T05:18:45;99848.13;;;-7.60;77.65
69911;BME280;63555;49.920;17.868;2023-03-01T05:23:46;99848.19;;;-7.54;77.93
69911;BME280;63555;49.920;17.868;2023-03-01T05:28:47;99850.88;;;-7.46;77.81
69911;BME280;63555;49.920;17.868;2023-03-01T05:33:47;99854.31;;;-7.44;77.41
69911;BME280;63555;49.920;17.868;2023-03-01T05:38:48;99862.03;;;-7.41;78.24
69911;BME280;63555;49.920;17.868;2023-03-01T05:43:48;99859.47;;;-7.41;77.63
69911;BME280;63555;49.920;17.868;2023-03-01T05:48:48;99863.78;;;-7.39;77.78
69911;BME280;63555;49.920;17.868;2023-03-01T05:53:49;99862.97;;;-7.36;77.27
69911;BME280;63555;49.920;17.868;2023-03-01T05:58:49;99872.53;;;-7.23;78.31
69911;BME280;63555;49.920;17.868;2023-03-01T06:03:50;99871.03;;;-7.07;77.79
69911;BME280;63555;49.920;17.868;2023-03-01T06:08:51;99868.88;;;-6.75;78.86
69911;BME280;63555;49.920;17.868;2023-03-01T06:13:51;99860.03;;;-6.20;79.34
69911;BME280;63555;49.920;17.868;2023-03-01T06:18:52;99861.44;;;-5.49;78.61
69911;BME280;63555;49.920;17.868;2023-03-01T06:23:52;99858.38;;;-4.76;78.50
69911;BME280;63555;49.920;17.868;2023-03-01T06:28:53;99853.41;;;-3.91;77.18
69911;BME280;63555;49.920;17.868;2023-03-01T06:33:53;99851.56;;;-3.05;76.11
69911;BME280;63555;49.920;17.868;2023-03-01T06:38:54;99844.38;;;-2.36;75.02
69911;BME280;63555;49.920;17.868;2023-03-01T06:43:54;99835.31;;;-1.71;74.29
69911;BME280;63555;49.920;17.868;2023-03-01T06:48:54;99829.44;;;-1.06;73.16
69911;BME280;63555;49.920;17.868;2023-03-01T06:53:55;99829.97;;;-0.76;72.98
69911;BME280;63555;49.920;17.868;2023-03-01T06:58:55;99834.94;;;0.02;72.87
69911;BME280;63555;49.920;17.868;2023-03-01T07:03:56;99832.25;;;1.04;72.06
69911;BME280;63555;49.920;17.868;2023-03-01T07:08:56;99827.41;;;2.07;70.41
69911;BME280;63555;49.920;17.868;2023-03-01T07:13:57;99809.69;;;2.88;68.97
69911;BME280;63555;49.920;17.868;2023-03-01T07:18:58;99812.09;;;3.56;68.36
69911;BME280;63555;49.920;17.868;2023-03-01T07:23:58;99806.75;;;4.41;67.04
69911;BME280;63555;49.920;17.868;2023-03-01T07:29:00;99803.25;;;5.16;65.27
69911;BME280;63555;49.920;17.868;2023-03-01T07:34:01;99802.06;;;5.93;64.34
69911;BME280;63555;49.920;17.868;2023-03-01T07:39:01;99809.69;;;6.82;62.50
69911;BME280;63555;49.920;17.868;2023-03-01T07:44:03;99810.81;;;7.54;61.19
69911;BME280;63555;49.920;17.868;2023-03-01T07:49:04;99800.72;;;8.19;59.71
69911;BME280;63555;49.920;17.868;2023-03-01T07:54:05;99792.66;;;8.58;59.36
69911;BME280;63555;49.920;17.868;2023-03-01T07:59:05;99786.88;;;9.35;57.92
69911;BME280;63555;49.920;17.868;2023-03-01T08:04:07;99788.28;;;9.73;56.56
69911;BME280;63555;49.920;17.868;2023-03-01T08:09:08;99789.34;;;10.16;55.75
69911;BME280;63555;49.920;17.868;2023-03-01T08:14:09;99784.31;;;10.88;54.35
69911;BME280;63555;49.920;17.868;2023-03-01T08:19:11;99778.34;;;11.27;53.10
69911;BME280;63555;49.920;17.868;2023-03-01T08:24:12;99770.41;;;11.69;51.44
69911;BME280;63555;49.920;17.868;2023-03-01T08:29:12;99757.53;;;11.92;50.79
69911;BME280;63555;49.920;17.868;2023-03-01T08:34:14;99753.81;;;12.61;49.72
69911;BME280;63555;49.920;17.868;2023-03-01T08:39:16;99740.03;;;12.94;49.18
69911;BME280;63555;49.920;17.868;2023-03-01T08:44:18;99742.59;;;13.33;48.21
69911;BME280;63555;49.920;17.868;2023-03-01T08:49:20;99737.06;;;13.73;47.31
69911;BME280;63555;49.920;17.868;2023-03-01T08:54:21;99730.22;;;14.29;46.20
69911;BME280;63555;49.920;17.868;2023-03-01T08:59:22;99729.00;;;14.57;45.47
69911;BME280;63555;49.920;17.868;2023-03-01T09:04:22;99731.41;;;14.60;44.81
69911;BME280;63555;49.920;17.868;2023-03-01T09:09:22;99732.09;;;14.97;43.41
69911;BME280;63555;49.920;17.868;2023-03-01T09:14:23;99724.59;;;15.36;42.39
69911;BME280;63555;49.920;17.868;2023-03-01T09:19:23;99725.19;;;15.40;42.82
69911;BME280;63555;49.920;17.868;2023-03-01T09:24:24;99726.69;;;15.98;41.40
69911;BME280;63555;49.920;17.868;2023-03-01T09:29:25;99729.69;;;16.78;39.98
69911;BME280;63555;49.920;17.868;2023-03-01T09:34:26;99725.75;;;17.34;39.37
69911;BME280;63555;49.920;17.868;2023-03-01T09:39:26;99720.69;;;17.71;38.64
69911;BME280;63555;49.920;17.868;2023-03-01T09:49:39;99717.75;;;17.34;38.11
69911;BME280;63555;49.920;17.868;2023-03-01T09:54:41;99717.09;;;17.41;38.15
69911;BME280;63555;49.920;17.868;2023-03-01T10:10:25;99713.81;;;16.98;37.59
69911;BME280;63555;49.920;17.868;2023-03-01T10:15:41;99709.50;;;17.37;36.89
69911;BME280;63555;49.920;17.868;2023-03-01T10:20:58;99697.75;;;17.59;37.07
69911;BME280;63555;49.920;17.868;2023-03-01T10:31:27;99695.59;;;19.34;34.33
69911;BME280;63555;49.920;17.868;2023-03-01T10:36:32;99679.56;;;19.62;33.94
69911;BME280;63555;49.920;17.868;2023-03-01T10:41:33;99679.22;;;19.20;34.11
69911;BME280;63555;49.920;17.868;2023-03-01T10:46:36;99678.91;;;18.86;34.76
69911;BME280;63555;49.920;17.868;2023-03-01T10:51:39;99675.63;;;18.35;35.27
69911;BME280;63555;49.920;17.868;2023-03-01T10:56:50;99668.75;;;18.04;35.14
69911;BME280;63555;49.920;17.868;2023-03-01T11:07:15;99652.59;;;17.76;35.77
69911;BME280;63555;49.920;17.868;2023-03-01T11:12:16;99648.94;;;17.68;35.30
69911;BME280;63555;49.920;17.868;2023-03-01T11:17:27;99643.28;;;17.61;35.16
69911;BME280;63555;49.920;17.868;2023-03-01T11:22:30;99638.69;;;17.73;34.78
69911;BME280;63555;49.920;17.868;2023-03-01T11:27:33;99638.50;;;18.42;33.90
69911;BME280;63555;49.920;17.868;2023-03-01T11:32:38;99635.66;;;18.53;33.58
69911;BME280;63555;49.920;17.868;2023-03-01T11:37:59;99632.00;;;18.54;33.53
69911;BME280;63555;49.920;17.868;2023-03-01T11:48:47;99612.69;;;18.04;33.79
69911;BME280;63555;49.920;17.868;2023-03-01T12:05:28;99600.63;;;16.92;34.55
69911;BME280;63555;49.920;17.868;2023-03-01T12:47:35;99557.41;;;18.43;32.94
69911;BME280;63555;49.920;17.868;2023-03-01T12:52:52;99560.59;;;17.90;32.84
69911;BME280;63555;49.920;17.868;2023-03-01T13:03:15;99552.72;;;17.21;33.33
69911;BME280;63555;49.920;17.868;2023-03-01T13:08:25;99547.78;;;17.07;33.63
69911;BME280;63555;49.920;17.868;2023-03-01T13:13:30;99550.78;;;16.73;33.80
69911;BME280;63555;49.920;17.868;2023-03-01T13:18:32;99545.91;;;16.78;33.51
69911;BME280;63555;49.920;17.868;2023-03-01T13:23:36;99542.25;;;16.18;34.03
69911;BME280;63555;49.920;17.868;2023-03-01T13:28:51;99538.38;;;16.32;34.22
69911;BME280;63555;49.920;17.868;2023-03-01T13:34:01;99531.25;;;16.33;34.11
69911;BME280;63555;49.920;17.868;2023-03-01T13:39:27;99527.09;;;16.70;34.17
69911;BME280;63555;49.920;17.868;2023-03-01T13:44:36;99525.47;;;17.08;33.42
69911;BME280;63555;49.920;17.868;2023-03-01T13:54:58;99507.69;;;15.98;34.67
69911;BME280;63555;49.920;17.868;2023-03-01T13:59:59;99516.72;;;15.85;34.89
69911;BME280;63555;49.920;17.868;2023-03-01T14:05:00;99521.69;;;15.58;35.12
69911;BME280;63555;49.920;17.868;2023-03-01T14:10:05;99514.50;;;15.38;35.22
69911;BME280;63555;49.920;17.868;2023-03-01T14:20:27;99510.97;;;14.17;36.32
69911;BME280;63555;49.920;17.868;2023-03-01T14:25:32;99508.69;;;13.55;36.77
69911;BME280;63555;49.920;17.868;2023-03-01T14:30:40;99512.38;;;13.42;36.81
69911;BME280;63555;49.920;17.868;2023-03-01T14:35:41;99514.03;;;13.07;37.14
69911;BME280;63555;49.920;17.868;2023-03-01T14:40:42;99515.09;;;12.32;38.10
69911;BME280;63555;49.920;17.868;2023-03-01T14:45:47;99510.28;;;11.48;39.35
69911;BME280;63555;49.920;17.868;2023-03-01T14:50:48;99514.66;;;10.68;40.24
69911;BME280;63555;49.920;17.868;2023-03-01T14:55:55;99522.44;;;9.70;41.33
69911;BME280;63555;49.920;17.868;2023-03-01T15:00:58;99521.31;;;8.69;42.69
69911;BME280;63555;49.920;17.868;2023-03-01T15:06:04;99511.13;;;7.81;44.23
69911;BME280;63555;49.920;17.868;2023-03-01T15:11:19;99514.00;;;7.07;44.85
69911;BME280;63555;49.920;17.868;2023-03-01T15:16:28;99514.78;;;6.54;45.48
69911;BME280;63555;49.920;17.868;2023-03-01T15:21:33;99518.78;;;6.05;46.30
69911;BME280;63555;49.920;17.868;2023-03-01T15:26:40;99517.97;;;5.64;47.09
69911;BME280;63555;49.920;17.868;2023-03-01T15:31:41;99514.72;;;5.38;47.70
69911;BME280;63555;49.920;17.868;2023-03-01T15:36:45;99500.56;;;5.63;46.64
69911;BME280;63555;49.920;17.868;2023-03-01T15:41:47;99499.25;;;5.73;46.81
69911;BME280;63555;49.920;17.868;2023-03-01T15:46:48;99500.97;;;5.33;47.35
69911;BME280;63555;49.920;17.868;2023-03-01T15:51:48;99501.94;;;4.89;48.28
69911;BME280;63555;49.920;17.868;2023-03-01T15:56:49;99507.06;;;4.48;49.14
69911;BME280;63555;49.920;17.868;2023-03-01T16:01:50;99514.63;;;4.09;49.93
69911;BME280;63555;49.920;17.868;2023-03-01T16:06:51;99514.91;;;3.78;50.96
69911;BME280;63555;49.920;17.868;2023-03-01T16:11:54;99517.88;;;3.42;51.15
69911;BME280;63555;49.920;17.868;2023-03-01T16:16:54;99523.31;;;3.10;51.70
69911;BME280;63555;49.920;17.868;2023-03-01T16:21:54;99525.28;;;2.77;52.77
69911;BME280;63555;49.920;17.868;2023-03-01T16:26:55;99519.22;;;2.47;53.31
69911;BME280;63555;49.920;17.868;2023-03-01T16:31:55;99517.38;;;2.22;54.06
69911;BME280;63555;49.920;17.868;2023-03-01T16:36:56;99512.91;;;1.98;54.30
69911;BME280;63555;49.920;17.868;2023-03-01T16:41:56;99520.50;;;1.75;54.36
69911;BME280;63555;49.920;17.868;2023-03-01T16:46:59;99525.53;;;1.48;54.69
69911;BME280;63555;49.920;17.868;2023-03-01T16:52:00;99529.78;;;1.18;55.16
69911;BME280;63555;49.920;17.868;2023-03-01T16:57:00;99525.22;;;0.92;55.75
69911;BME280;63555;49.920;17.868;2023-03-01T17:02:00;99524.94;;;0.68;56.07
69911;BME280;63555;49.920;17.868;2023-03-01T17:07:01;99538.69;;;0.32;57.04
69911;BME280;63555;49.920;17.868;2023-03-01T17:12:01;99536.59;;;0.10;57.37
69911;BME280;63555;49.920;17.868;2023-03-01T17:17:02;99539.69;;;-0.16;57.61
69911;BME280;63555;49.920;17.868;2023-03-01T17:22:03;99542.75;;;-0.41;58.23
69911;BME280;63555;49.920;17.868;2023-03-01T17:27:04;99554.38;;;-0.61;58.88
69911;BME280;63555;49.920;17.868;2023-03-01T17:32:05;99551.19;;;-0.76;59.15
69911;BME280;63555;49.920;17.868;2023-03-01T17:37:05;99553.94;;;-0.86;59.58
69911;BME280;63555;49.920;17.868;2023-03-01T17:42:06;99555.00;;;-1.00;59.97
69911;BME280;63555;49.920;17.868;2023-03-01T17:47:06;99557.84;;;-1.16;60.10
69911;BME280;63555;49.920;17.868;2023-03-01T17:52:06;99550.28;;;-1.29;60.15
69911;BME280;63555;49.920;17.868;2023-03-01T17:57:07;99541.78;;;-1.37;60.65
69911;BME280;63555;49.920;17.868;2023-03-01T18:02:10;99552.31;;;-1.49;61.43
69911;BME280;63555;49.920;17.868;2023-03-01T18:07:11;99560.25;;;-1.61;61.72
69911;BME280;63555;49.920;17.868;2023-03-01T18:12:11;99552.63;;;-1.70;62.33
69911;BME280;63555;49.920;17.868;2023-03-01T18:17:12;99557.03;;;-1.80;62.16
69911;BME280;63555;49.920;17.868;2023-03-01T18:22:12;99551.91;;;-1.84;62.14
69911;BME280;63555;49.920;17.868;2023-03-01T18:27:13;99537.34;;;-1.92;62.26
69911;BME280;63555;49.920;17.868;2023-03-01T18:32:14;99530.59;;;-2.00;62.63
69911;BME280;63555;49.920;17.868;2023-03-01T18:37:14;99524.69;;;-2.11;62.85
69911;BME280;63555;49.920;17.868;2023-03-01T18:42:15;99539.44;;;-2.19;63.25
69911;BME280;63555;49.920;17.868;2023-03-01T18:47:15;99527.41;;;-2.22;63.74
69911;BME280;63555;49.920;17.868;2023-03-01T18:52:16;99531.75;;;-2.26;63.49
69911;BME280;63555;49.920;17.868;2023-03-01T18:57:16;99531.84;;;-2.33;63.96
69911;BME280;63555;49.920;17.868;2023-03-01T19:02:16;99537.19;;;-2.50;64.03
69911;BME280;63555;49.920;17.868;2023-03-01T19:07:17;99541.63;;;-2.66;64.26
69911;BME280;63555;49.920;17.868;2023-03-01T19:12:17;99540.03;;;-2.79;64.69
69911;BME280;63555;49.920;17.868;2023-03-01T19:17:21;99539.28;;;-2.89;64.91
69911;BME280;63555;49.920;17.868;2023-03-01T19:22:23;99530.78;;;-3.00;65.03
69911;BME280;63555;49.920;17.868;2023-03-01T19:27:25;99529.16;;;-3.13;65.63
69911;BME280;63555;49.920;17.868;2023-03-01T19:32:25;99533.56;;;-3.24;66.26
69911;BME280;63555;49.920;17.868;2023-03-01T19:37:26;99530.16;;;-3.28;66.04
69911;BME280;63555;49.920;17.868;2023-03-01T19:42:26;99533.63;;;-3.33;66.24
69911;BME280;63555;49.920;17.868;2023-03-01T19:47:27;99532.81;;;-3.40;66.63
69911;BME280;63555;49.920;17.868;2023-03-01T19:52:27;99536.28;;;-3.47;66.86
69911;BME280;63555;49.920;17.868;2023-03-01T19:57:28;99540.59;;;-3.49;66.73
69911;BME280;63555;49.920;17.868;2023-03-01T20:02:28;99546.59;;;-3.48;66.88
69911;BME280;63555;49.920;17.868;2023-03-01T20:07:28;99543.16;;;-3.47;67.08
69911;BME280;63555;49.920;17.868;2023-03-01T20:12:29;99544.84;;;-3.37;67.06
69911;BME280;63555;49.920;17.868;2023-03-01T20:17:29;99540.56;;;-3.41;67.38
69911;BME280;63555;49.920;17.868;2023-03-01T20:22:29;99532.00;;;-3.48;67.44
69911;BME280;63555;49.920;17.868;2023-03-01T20:27:30;99536.38;;;-3.61;67.68
69911;BME280;63555;49.920;17.868;2023-03-01T20:32:31;99527.81;;;-3.66;68.25
69911;BME280;63555;49.920;17.868;2023-03-01T20:37:32;99534.69;;;-3.68;68.27
69911;BME280;63555;49.920;17.868;2023-03-01T20:42:32;99536.44;;;-3.73;67.78
69911;BME280;63555;49.920;17.868;2023-03-01T20:47:33;99533.03;;;-3.79;68.16
69911;BME280;63555;49.920;17.868;2023-03-01T20:52:33;99536.50;;;-3.82;68.49
69911;BME280;63555;49.920;17.868;2023-03-01T20:57:34;99535.66;;;-3.84;68.42
69911;BME280;63555;49.920;17.868;2023-03-01T21:02:34;99533.13;;;-3.93;68.54
69911;BME280;63555;49.920;17.868;2023-03-01T21:07:34;99528.88;;;-4.03;68.70
69911;BME280;63555;49.920;17.868;2023-03-01T21:12:35;99539.25;;;-4.17;69.05
69911;BME280;63555;49.920;17.868;2023-03-01T21:17:35;99536.72;;;-4.28;69.40
69911;BME280;63555;49.920;17.868;2023-03-01T21:22:35;99534.16;;;-4.29;69.53
69911;BME280;63555;49.920;17.868;2023-03-01T21:27:37;99535.00;;;-4.36;69.36
69911;BME280;63555;49.920;17.868;2023-03-01T21:32:37;99541.00;;;-4.37;70.42
69911;BME280;63555;49.920;17.868;2023-03-01T21:37:38;99538.44;;;-4.42;69.42
69911;BME280;63555;49.920;17.868;2023-03-01T21:42:39;99536.75;;;-4.54;70.10
69911;BME280;63555;49.920;17.868;2023-03-01T21:47:41;99541.94;;;-4.66;70.15
69911;BME280;63555;49.920;17.868;2023-03-01T21:52:42;99537.69;;;-4.79;70.25
69911;BME280;63555;49.920;17.868;2023-03-01T21:57:42;99547.13;;;-4.89;70.76
69911;BME280;63555;49.920;17.868;2023-03-01T22:02:43;99538.56;;;-4.98;70.78
69911;BME280;63555;49.920;17.868;2023-03-01T22:07:43;99538.56;;;-5.04;70.88
69911;BME280;63555;49.920;17.868;2023-03-01T22:12:44;99541.16;;;-5.10;71.10
69911;BME280;63555;49.920;17.868;2023-03-01T22:17:44;99548.84;;;-5.14;70.72
69911;BME280;63555;49.920;17.868;2023-03-01T22:22:45;99558.25;;;-5.23;71.15
69911;BME280;63555;49.920;17.868;2023-03-01T22:27:45;99551.38;;;-5.38;71.55
69911;BME280;63555;49.920;17.868;2023-03-01T22:32:45;99546.25;;;-5.42;71.88
69911;BME280;63555;49.920;17.868;2023-03-01T22:37:46;99541.97;;;-5.50;72.26
69911;BME280;63555;49.920;17.868;2023-03-01T22:42:46;99542.81;;;-5.51;72.41
69911;BME280;63555;49.920;17.868;2023-03-01T22:47:46;99540.25;;;-5.51;71.88
69911;BME280;63555;49.920;17.868;2023-03-01T22:52:47;99536.81;;;-5.51;71.91
69911;BME280;63555;49.920;17.868;2023-03-01T22:57:50;99542.81;;;-5.55;72.01
69911;BME280;63555;49.920;17.868;2023-03-01T23:02:51;99536.81;;;-5.62;72.59
69911;BME280;63555;49.920;17.868;2023-03-01T23:13:48;99533.34;;;-5.74;71.94
69911;BME280;63555;49.920;17.868;2023-03-01T23:18:49;99527.34;;;-5.77;72.39
69911;BME280;63555;49.920;17.868;2023-03-01T23:23:50;99518.81;;;-5.72;72.28
69911;BME280;63555;49.920;17.868;2023-03-01T23:28:50;99524.81;;;-5.73;72.15
69911;BME280;63555;49.920;17.868;2023-03-01T23:33:51;99526.50;;;-5.80;72.24
69911;BME280;63555;49.920;17.868;2023-03-01T23:38:55;99527.34;;;-5.89;72.67
69911;BME280;63555;49.920;17.868;2023-03-01T23:43:57;99523.06;;;-5.94;72.65
69911;BME280;63555;49.920;17.868;2023-03-01T23:48:59;99524.78;;;-5.99;72.55
69911;BME280;63555;49.920;17.868;2023-03-01T23:54:01;99523.91;;;-6.04;73.14
69911;BME280;63555;49.920;17.868;2023-03-01T23:59:10;99539.31;;;-6.06;73.22
